| time (UTC) | temp C | wind direction | speed KPH | gust KPH | rain 1hr cm | rain 24hr cm | rain mn cm | humidity % | barometer mb |
| 20260906083101 | 27 | 104 | 12.9 | 17.7 | 0.00 | 0.00 | 0.00 | 66 | 1023.0 |
| 20260906081557 | 27 | 103 | 12.9 | 16.1 | 0.00 | 0.00 | 0.00 | 64 | 1023.0 |
| 20260906080056 | 27 | 104 | 14.5 | 19.3 | 0.00 | 0.00 | 0.00 | 64 | 1022.9 |
| 20260906074554 | 27 | 101 | 16.1 | 19.3 | 0.00 | 0.00 | 0.00 | 67 | 1022.8 |
| 20260906073049 | 27 | 160 | 3.2 | 8.0 | 0.00 | 0.00 | 0.00 | 69 | 1022.7 |
| 20260906071546 | 27 | 140 | 3.2 | 4.8 | 0.00 | 0.00 | 0.00 | 68 | 1022.5 |
| 20260906070044 | 27 | 111 | 0.0 | 1.6 | 0.00 | 0.00 | 0.00 | 68 | 1022.3 |
| 20260906064539 | 26 | 260 | 0.0 | 3.2 | 0.00 | 0.00 | 0.00 | 75 | 1022.2 |
| 20260906063006 | 25 | 272 | 1.6 | 4.8 | 0.00 | 0.00 | 0.00 | 78 | 1022.0 |
| 20260906061502 | 23 | 257 | 3.2 | 9.7 | 0.00 | 0.00 | 0.00 | 79 | 1022.0 |
| 20260906060056 | 23 | 267 | 4.8 | 8.0 | 0.00 | 0.00 | 0.00 | 79 | 1021.9 |
| 20260906054604 | 23 | 247 | 6.4 | 9.7 | 0.00 | 0.00 | 0.00 | 79 | 1021.7 |
| 20260906053053 | 24 | 252 | 3.2 | 8.0 | 0.00 | 0.00 | 0.00 | 76 | 1021.6 |
| 20260906051546 | 27 | 108 | 9.7 | 16.1 | 0.00 | 0.00 | 0.00 | 68 | 1021.5 |
| 20260906050015 | 27 | 113 | 12.9 | 16.1 | 0.00 | 0.00 | 0.00 | 70 | 1021.2 |
| 20260906044514 | 27 | 105 | 12.9 | 16.1 | 0.00 | 0.00 | 0.00 | 69 | 1021.0 |
| 20260906043011 | 27 | 120 | 11.3 | 16.1 | 0.00 | 0.00 | 0.00 | 73 | 1020.9 |
| 20260906041511 | 27 | 118 | 12.9 | 17.7 | 0.00 | 0.00 | 0.00 | 71 | 1020.8 |
| 20260906040008 | 27 | 109 | 12.9 | 17.7 | 0.00 | 0.00 | 0.00 | 76 | 1020.6 |
| 20260906034509 | 27 | 85 | 14.5 | 17.7 | 0.00 | 0.00 | 0.00 | 78 | 1020.5 |
| 20260906033037 | 27 | 98 | 14.5 | 17.7 | 0.00 | 0.00 | 0.00 | 78 | 1020.5 |
| 20260906031535 | 27 | 98 | 14.5 | 17.7 | 0.00 | 0.00 | 0.00 | 79 | 1020.4 |
| 20260906030031 | 27 | 80 | 16.1 | 19.3 | 0.00 | 0.00 | 0.00 | 81 | 1020.4 |
| 20260906024530 | 27 | 75 | 16.1 | 22.5 | 0.00 | 0.00 | 0.00 | 80 | 1020.5 |
| 20260906023030 | 27 | 75 | 16.1 | 22.5 | 0.00 | 0.00 | 0.00 | 80 | 1020.4 |
| 20260906021528 | 27 | 63 | 17.7 | 22.5 | 0.00 | 0.00 | 0.00 | 81 | 1020.3 |
| 20260906020029 | 27 | 58 | 17.7 | 20.9 | 0.00 | 0.00 | 0.00 | 80 | 1020.1 |
| 20260906014531 | 27 | 53 | 14.5 | 19.3 | 0.00 | 0.00 | 0.00 | 81 | 1019.9 |
| 20260906013029 | 25 | 41 | 6.4 | 14.5 | 0.00 | 0.00 | 0.00 | 91 | 1020.0 |
| 20260906011522 | 25 | 283 | 1.6 | 4.8 | 0.00 | 0.00 | 0.00 | 87 | 1019.9 |
| 20260906010051 | 25 | 271 | 3.2 | 4.8 | 0.00 | 0.00 | 0.00 | 86 | 1019.6 |
| 20260906004551 | 26 | 244 | 0.0 | 0.0 | 0.00 | 0.00 | 0.00 | 84 | 1019.6 |
| 20260906003047 | 26 | 194 | 0.0 | 0.0 | 0.00 | 0.00 | 0.00 | 83 | 1019.6 |
| 20260906001546 | 26 | 215 | 0.0 | 1.6 | 0.00 | 0.00 | 0.00 | 81 | 1019.6 |
| 20260906000044 | 27 | 105 | 4.8 | 6.4 | 0.00 | 0.00 | 0.00 | 79 | 1019.8 |
| 20260905234550 | 27 | 123 | 4.8 | 6.4 | 0.00 | 0.00 | 0.00 | 78 | 1019.8 |
| 20260905233017 | 27 | 119 | 6.4 | 8.0 | 0.00 | 0.00 | 0.00 | 77 | 1019.6 |
| 20260905231517 | 27 | 108 | 6.4 | 8.0 | 0.00 | 0.00 | 0.00 | 78 | 1019.8 |
| 20260905230100 | 27 | 104 | 8.0 | 9.7 | 0.00 | 0.00 | 0.00 | 79 | 1019.6 |
| 20260905224542 | 27 | 98 | 6.4 | 9.7 | 0.00 | 0.00 | 0.00 | 79 | 1019.7 |
| 20260905223011 | 27 | 102 | 6.4 | 9.7 | 0.00 | 0.00 | 0.00 | 78 | 1019.7 |
| 20260905221513 | 27 | 113 | 8.0 | 11.3 | 0.00 | 0.00 | 0.00 | 78 | 1019.5 |
| 20260905220006 | 27 | 111 | 8.0 | 11.3 | 0.00 | 0.00 | 0.00 | 78 | 1019.5 |
| 20260905214505 | 28 | 113 | 9.7 | 12.9 | 0.00 | 0.00 | 0.00 | 78 | 1019.4 |
| 20260905213005 | 27 | 117 | 9.7 | 12.9 | 0.00 | 0.00 | 0.00 | 77 | 1019.3 |
| 20260905211508 | 27 | 115 | 9.7 | 14.5 | 0.00 | 0.00 | 0.00 | 77 | 1019.3 |
| 20260905204601 | 27 | 117 | 11.3 | 12.9 | 0.00 | 0.00 | 0.00 | 78 | 1019.2 |
| 20260905203103 | 28 | 124 | 11.3 | 14.5 | 0.00 | 0.00 | 0.00 | 78 | 1019.3 |
| 20260905201557 | 28 | 118 | 11.3 | 14.5 | 0.00 | 0.00 | 0.00 | 78 | 1019.3 |
| 20260905200101 | 28 | 127 | 12.9 | 14.5 | 0.00 | 0.00 | 0.00 | 74 | 1019.0 |
| 20260905194550 | 28 | 124 | 12.9 | 16.1 | 0.00 | 0.00 | 0.00 | 72 | 1019.0 |
| 20260905193105 | 28 | 131 | 11.3 | 16.1 | 0.00 | 0.00 | 0.00 | 73 | 1018.9 |
| 20260905191547 | 28 | 133 | 11.3 | 16.1 | 0.00 | 0.00 | 0.00 | 72 | 1018.8 |
| 20260905190043 | 28 | 143 | 11.3 | 16.1 | 0.00 | 0.00 | 0.00 | 71 | 1018.6 |
| 20260905184543 | 28 | 143 | 12.9 | 17.7 | 0.00 | 0.00 | 0.00 | 71 | 1018.4 |
| 20260905183046 | 28 | 145 | 12.9 | 19.3 | 0.00 | 0.00 | 0.00 | 68 | 1018.1 |
| 20260905181541 | 28 | 161 | 14.5 | 19.3 | 0.00 | 0.00 | 0.00 | 68 | 1018.1 |
| 20260905180040 | 28 | 182 | 14.5 | 19.3 | 0.00 | 0.00 | 0.00 | 66 | 1017.8 |
| 20260905174538 | 28 | 162 | 16.1 | 20.9 | 0.00 | 0.00 | 0.00 | 66 | 1017.7 |
| 20260905173042 | 28 | 204 | 16.1 | 20.9 | 0.00 | 0.00 | 0.00 | 67 | 1017.6 |
| 20260905171537 | 28 | 167 | 14.5 | 22.5 | 0.00 | 0.00 | 0.00 | 67 | 1017.6 |
| 20260905170038 | 29 | 150 | 14.5 | 20.9 | 0.00 | 0.00 | 0.00 | 69 | 1017.5 |
| 20260905164513 | 29 | 147 | 16.1 | 19.3 | 0.00 | 0.00 | 0.00 | 67 | 1017.6 |
| 20260905163005 | 29 | 131 | 14.5 | 19.3 | 0.00 | 0.00 | 0.00 | 67 | 1017.4 |
| 20260905161534 | 29 | 146 | 12.9 | 19.3 | 0.00 | 0.00 | 0.00 | 66 | 1017.2 |
| 20260905160034 | 29 | 139 | 14.5 | 20.9 | 0.00 | 0.00 | 0.00 | 65 | 1017.1 |
| 20260905154535 | 29 | 145 | 16.1 | 20.9 | 0.00 | 0.00 | 0.00 | 66 | 1017.1 |
| 20260905153030 | 29 | 157 | 14.5 | 20.9 | 0.00 | 0.00 | 0.00 | 61 | 1017.0 |
| 20260905151531 | 29 | 136 | 12.9 | 19.3 | 0.00 | 0.00 | 0.00 | 68 | 1017.0 |
| 20260905150035 | 30 | 143 | 12.9 | 20.9 | 0.00 | 0.00 | 0.00 | 61 | 1016.9 |
| 20260905144526 | 29 | 168 | 14.5 | 19.3 | 0.00 | 0.00 | 0.00 | 69 | 1016.9 |
| 20260905143025 | 29 | 101 | 11.3 | 16.1 | 0.00 | 0.00 | 0.00 | 69 | 1016.9 |
| 20260905141524 | 30 | 94 | 12.9 | 17.7 | 0.00 | 0.00 | 0.00 | 65 | 1016.7 |
| 20260905140022 | 30 | 81 | 12.9 | 19.3 | 0.00 | 0.00 | 0.00 | 58 | 1017.0 |
| 20260905134549 | 30 | 97 | 16.1 | 19.3 | 0.00 | 0.00 | 0.00 | 55 | 1017.0 |
| 20260905133049 | 31 | 68 | 11.3 | 24.1 | 0.00 | 0.00 | 0.00 | 46 | 1017.0 |
| 20260905131545 | 35 | 289 | 6.4 | 14.5 | 0.00 | 0.00 | 0.00 | 29 | 1017.0 |
| 20260905130045 | 34 | 25 | 8.0 | 20.9 | 0.00 | 0.00 | 0.00 | 31 | 1017.1 |
| 20260905124543 | 34 | 296 | 9.7 | 17.7 | 0.00 | 0.00 | 0.00 | 30 | 1017.5 |
| 20260905123042 | 34 | 297 | 6.4 | 16.1 | 0.00 | 0.00 | 0.00 | 29 | 1017.6 |
| 20260905121538 | 34 | 332 | 4.8 | 14.5 | 0.00 | 0.00 | 0.00 | 30 | 1017.7 |
| 20260905120034 | 34 | 13 | 8.0 | 16.1 | 0.00 | 0.00 | 0.00 | 29 | 1017.7 |
| 20260905114532 | 33 | 247 | 4.8 | 16.1 | 0.00 | 0.00 | 0.00 | 30 | 1018.0 |
| 20260905113030 | 33 | 337 | 4.8 | 14.5 | 0.00 | 0.00 | 0.00 | 31 | 1018.1 |
| 20260905111556 | 33 | 317 | 4.8 | 12.9 | 0.00 | 0.00 | 0.00 | 31 | 1018.2 |
| 20260905110055 | 33 | 322 | 12.9 | 17.7 | 0.00 | 0.00 | 0.00 | 30 | 1018.1 |
| 20260905104550 | 33 | 311 | 8.0 | 16.1 | 0.00 | 0.00 | 0.00 | 32 | 1018.3 |
| 20260905103049 | 32 | 24 | 8.0 | 19.3 | 0.00 | 0.00 | 0.00 | 34 | 1018.3 |
| 20260905101547 | 32 | 300 | 6.4 | 16.1 | 0.00 | 0.00 | 0.00 | 33 | 1018.1 |
| 20260905100044 | 32 | 345 | 9.7 | 17.7 | 0.00 | 0.00 | 0.00 | 34 | 1018.3 |
| 20260905094540 | 32 | 272 | 6.4 | 19.3 | 0.00 | 0.00 | 0.00 | 34 | 1018.5 |
| 20260905093048 | 32 | 317 | 4.8 | 12.9 | 0.00 | 0.00 | 0.00 | 34 | 1018.5 |
| 20260905091536 | 31 | 275 | 3.2 | 14.5 | 0.00 | 0.00 | 0.00 | 37 | 1018.4 |
| 20260905090035 | 31 | 332 | 6.4 | 14.5 | 0.00 | 0.00 | 0.00 | 39 | 1018.3 |
| 20260905084526 | 31 | 336 | 8.0 | 14.5 | 0.00 | 0.00 | 0.00 | 39 | 1018.2 |